Time;durP1;ratioP1;P1;durP2;ratioP2;P2;SDS_P1;SDS_P2;PMS_P1;PMS_P2;Temp;Humidity;BMP_temperature;BMP_pressure;BME280_temperature;BME280_humidity;BME280_pressure;Samples;Min_cycle;Max_cycle;Signal;HPM_P1;HPM_P2
2020/12/27 00:00:09;;;;;;;6.23;4.17;;;;;;;4.10;98.27;95751.16;5071000;28;20200;-69
2020/12/27 00:02:37;;;;;;;6.23;3.63;;;;;;;4.13;99.00;95747.34;5071168;28;20196;-69
2020/12/27 00:05:05;;;;;;;7.67;4.43;;;;;;;4.10;99.59;95753.72;5071148;28;20203;-67
2020/12/27 00:07:34;;;;;;;10.13;3.77;;;;;;;4.12;99.53;95756.06;5071055;28;20195;-67
2020/12/27 00:10:02;;;;;;;8.53;4.20;;;;;;;4.00;99.74;95758.78;5071033;28;20268;-69
2020/12/27 00:12:28;;;;;;;7.43;4.80;;;;;;;4.03;100.00;95763.47;5071080;28;20228;-69
2020/12/27 00:14:55;;;;;;;8.57;4.40;;;;;;;3.93;100.00;95753.09;5070741;28;20687;-69
2020/12/27 00:17:22;;;;;;;9.07;5.00;;;;;;;3.87;100.00;95761.78;5070764;28;20577;-69
2020/12/27 00:19:49;;;;;;;10.87;5.23;;;;;;;3.90;100.00;95768.97;5070765;28;20196;-70
2020/12/27 00:22:18;;;;;;;10.80;4.90;;;;;;;3.92;100.00;95764.38;5070734;28;20192;-70
2020/12/27 00:24:45;;;;;;;8.27;5.27;;;;;;;3.79;100.00;95760.41;5070976;28;20196;-70
2020/12/27 00:27:14;;;;;;;7.27;5.30;;;;;;;3.92;100.00;95755.91;5070709;28;20303;-69
2020/12/27 00:29:40;;;;;;;7.17;4.70;;;;;;;3.87;100.00;95759.19;5070685;28;20193;-66
2020/12/27 00:32:07;;;;;;;7.87;4.90;;;;;;;3.81;100.00;95755.03;5070002;28;20224;-67
2020/12/27 00:34:34;;;;;;;7.50;4.77;;;;;;;3.90;100.00;95756.13;5070541;28;20324;-69
2020/12/27 00:37:02;;;;;;;8.17;5.23;;;;;;;3.90;100.00;95748.41;5070269;28;20302;-70
2020/12/27 00:39:28;;;;;;;8.10;4.83;;;;;;;4.01;100.00;95744.91;5070741;28;20309;-69
2020/12/27 00:41:59;;;;;;;10.80;5.07;;;;;;;3.92;100.00;95741.25;5070505;28;20250;-69
2020/12/27 00:44:28;;;;;;;8.43;5.23;;;;;;;3.91;100.00;95744.84;5070132;28;20772;-70
2020/12/27 00:46:55;;;;;;;7.80;5.27;;;;;;;3.78;100.00;95751.16;5070733;28;20201;-69
2020/12/27 00:49:22;;;;;;;8.27;5.20;;;;;;;3.80;100.00;95753.47;5070189;28;20188;-69
2020/12/27 00:51:51;;;;;;;8.50;5.30;;;;;;;3.79;100.00;95752.69;5070182;28;20200;-70
2020/12/27 00:54:17;;;;;;;8.67;5.43;;;;;;;3.84;100.00;95750.16;5070415;28;20262;-69
2020/12/27 00:56:50;;;;;;;8.00;5.60;;;;;;;4.00;100.00;95743.38;5070211;28;20195;-69
2020/12/27 00:59:17;;;;;;;7.40;4.90;;;;;;;4.03;100.00;95745.47;5070168;28;20196;-70
2020/12/27 01:01:45;;;;;;;10.07;6.03;;;;;;;4.01;100.00;95744.13;5070033;28;20279;-70
2020/12/27 01:04:12;;;;;;;10.03;5.50;;;;;;;4.00;100.00;95748.50;5070171;28;20192;-69
2020/12/27 01:06:39;;;;;;;9.70;5.70;;;;;;;4.08;100.00;95745.50;5069966;28;20193;-70
2020/12/27 01:09:06;;;;;;;8.37;5.70;;;;;;;4.14;100.00;95743.72;5069868;28;20196;-70
2020/12/27 01:11:33;;;;;;;9.10;6.40;;;;;;;4.23;100.00;95747.41;5069986;28;20192;-70
2020/12/27 01:14:00;;;;;;;10.00;6.23;;;;;;;4.18;100.00;95744.78;5069856;28;20616;-70
2020/12/27 01:16:28;;;;;;;7.17;6.20;;;;;;;4.12;100.00;95746.56;5069767;28;20188;-71
2020/12/27 01:18:55;;;;;;;10.80;6.70;;;;;;;4.17;100.00;95748.38;5069843;28;20204;-70
2020/12/27 01:21:24;;;;;;;9.17;6.30;;;;;;;4.05;100.00;95748.53;5069743;28;20203;-69
2020/12/27 01:23:51;;;;;;;11.30;6.67;;;;;;;4.12;100.00;95746.56;5069765;28;20200;-70
2020/12/27 01:26:18;;;;;;;11.23;7.27;;;;;;;4.21;100.00;95749.44;5069728;28;20193;-68
2020/12/27 01:28:45;;;;;;;10.30;6.80;;;;;;;4.24;100.00;95744.56;5069785;28;20583;-70
2020/12/27 01:31:11;;;;;;;10.07;6.83;;;;;;;4.25;100.00;95740.97;5069746;28;20189;-68
2020/12/27 01:33:38;;;;;;;11.83;7.30;;;;;;;4.22;100.00;95730.41;5069603;28;20232;-71
2020/12/27 01:36:06;;;;;;;11.77;6.50;;;;;;;4.32;100.00;95731.25;5069726;28;20249;-70
2020/12/27 01:38:32;;;;;;;10.37;6.70;;;;;;;4.29;100.00;95726.59;5069757;28;20676;-71
2020/12/27 01:41:03;;;;;;;9.70;7.00;;;;;;;4.09;100.00;95725.69;5069715;28;20196;-69
2020/12/27 01:43:30;;;;;;;11.37;6.43;;;;;;;4.03;100.00;95732.59;5070851;28;20228;-71
2020/12/27 01:45:57;;;;;;;9.23;6.30;;;;;;;4.04;100.00;95730.78;5073991;28;20188;-68
2020/12/27 01:48:24;;;;;;;8.50;6.53;;;;;;;4.16;100.00;95727.03;5073839;28;20192;-70
2020/12/27 01:50:52;;;;;;;8.37;6.53;;;;;;;4.17;100.00;95722.66;5073887;28;20694;-71
2020/12/27 01:53:20;;;;;;;8.10;6.17;;;;;;;4.08;100.00;95724.94;5073368;28;20791;-71
2020/12/27 01:55:47;;;;;;;10.67;6.53;;;;;;;4.09;100.00;95726.44;5073450;28;20193;-70
2020/12/27 01:58:20;;;;;;;11.23;7.07;;;;;;;3.98;100.00;95719.72;5073390;28;20230;-69
2020/12/27 02:00:48;;;;;;;8.60;6.23;;;;;;;3.82;100.00;95711.09;5073290;28;20620;-70
2020/12/27 02:03:15;;;;;;;8.63;6.07;;;;;;;3.93;100.00;95704.25;5073520;28;20249;-69
2020/12/27 02:05:44;;;;;;;16.63;9.13;;;;;;;4.02;100.00;95705.34;5073277;28;20192;-71
2020/12/27 02:08:12;;;;;;;14.33;8.40;;;;;;;4.10;100.00;95702.28;5073262;28;20734;-71
2020/12/27 02:10:41;;;;;;;10.13;7.60;;;;;;;4.11;100.00;95696.13;5073376;28;20269;-68
2020/12/27 02:13:08;;;;;;;13.37;8.70;;;;;;;4.10;100.00;95683.53;5073268;28;20620;-71
2020/12/27 02:15:36;;;;;;;13.20;8.73;;;;;;;4.16;100.00;95693.59;5073320;28;20196;-71
2020/12/27 02:18:03;;;;;;;15.27;9.47;;;;;;;4.27;100.00;95699.59;5073021;28;20913;-71
2020/12/27 02:20:30;;;;;;;16.23;10.80;;;;;;;4.28;100.00;95691.59;5073181;28;20667;-71
2020/12/27 02:22:57;;;;;;;15.23;9.57;;;;;;;4.35;100.00;95686.25;5072968;28;20196;-71
2020/12/27 02:25:24;;;;;;;15.90;9.23;;;;;;;4.43;100.00;95670.34;5073107;28;20203;-70
2020/12/27 02:27:51;;;;;;;14.87;7.60;;;;;;;4.45;100.00;95677.81;5073027;28;20295;-70
2020/12/27 02:30:18;;;;;;;10.27;6.40;;;;;;;4.42;100.00;95671.38;5073323;28;20201;-71
2020/12/27 02:32:45;;;;;;;9.23;5.73;;;;;;;4.39;100.00;95674.44;5072837;28;20228;-71
2020/12/27 02:35:12;;;;;;;10.67;7.23;;;;;;;4.30;100.00;95674.13;5072924;28;20202;-71
2020/12/27 02:37:38;;;;;;;12.97;8.20;;;;;;;4.27;100.00;95666.94;5072520;28;20769;-71
2020/12/27 02:40:05;;;;;;;13.80;8.37;;;;;;;4.30;100.00;95670.78;5073222;28;20226;-71
2020/12/27 02:42:33;;;;;;;12.03;7.20;;;;;;;4.29;100.00;95664.88;5072523;28;20211;-71
2020/12/27 02:45:11;;;;;;;9.03;6.47;;;;;;;4.39;100.00;95653.06;5072280;28;20228;-67
2020/12/27 02:47:39;;;;;;;10.17;6.33;;;;;;;4.45;100.00;95647.72;5072551;28;20192;-71
2020/12/27 02:50:12;;;;;;;11.30;6.10;;;;;;;4.43;100.00;95659.28;5072521;28;20197;-71
2020/12/27 02:52:40;;;;;;;43.57;16.60;;;;;;;4.39;100.00;95663.38;5072634;28;20232;-71
2020/12/27 02:55:07;;;;;;;98.87;34.80;;;;;;;4.41;100.00;95661.34;5072544;28;20192;-65
2020/12/27 02:57:35;;;;;;;87.23;31.67;;;;;;;4.45;100.00;95657.22;5072769;28;20249;-72
2020/12/27 03:00:05;;;;;;;56.00;22.50;;;;;;;4.40;100.00;95664.91;5072381;28;20208;-71
2020/12/27 03:02:32;;;;;;;14.13;7.47;;;;;;;4.54;100.00;95650.56;5072201;28;20192;-71
2020/12/27 03:04:59;;;;;;;9.97;6.50;;;;;;;4.52;100.00;95658.56;5072227;28;20205;-71
2020/12/27 03:07:26;;;;;;;10.57;6.40;;;;;;;4.50;100.00;95654.69;5072211;28;20196;-71
2020/12/27 03:09:52;;;;;;;9.13;6.03;;;;;;;4.49;100.00;95666.00;5072092;28;20199;-71
2020/12/27 03:12:19;;;;;;;7.60;5.60;;;;;;;4.49;100.00;95669.34;5072177;28;20725;-72
2020/12/27 03:14:47;;;;;;;9.77;5.93;;;;;;;4.46;100.00;95669.06;5071844;28;20192;-70
2020/12/27 03:17:14;;;;;;;9.47;6.90;;;;;;;4.51;100.00;95666.53;5071921;28;20200;-71
2020/12/27 03:19:40;;;;;;;9.90;6.13;;;;;;;4.58;100.00;95672.22;5071919;28;20687;-70
2020/12/27 03:22:07;;;;;;;10.10;6.47;;;;;;;4.57;100.00;95674.03;5071915;28;20280;-71
2020/12/27 03:24:34;;;;;;;9.70;6.50;;;;;;;4.45;100.00;95662.38;5071836;28;20249;-71
2020/12/27 03:27:01;;;;;;;9.83;6.53;;;;;;;4.37;100.00;95661.06;5071879;28;20192;-70
2020/12/27 03:29:27;;;;;;;7.50;5.87;;;;;;;4.50;100.00;95654.69;5071949;28;20221;-71
2020/12/27 03:31:55;;;;;;;9.67;6.53;;;;;;;4.51;100.00;95657.00;5071736;28;20192;-69
2020/12/27 03:34:23;;;;;;;10.53;7.13;;;;;;;4.47;100.00;95655.97;5071687;28;20220;-72
2020/12/27 03:36:50;;;;;;;11.53;6.60;;;;;;;4.46;100.00;95651.84;5071583;28;20220;-67
2020/12/27 03:39:16;;;;;;;10.97;7.20;;;;;;;4.48;100.00;95656.75;5071642;28;20197;-70
2020/12/27 03:41:43;;;;;;;9.23;6.50;;;;;;;4.57;100.00;95660.38;5071656;28;20257;-72
2020/12/27 03:44:11;;;;;;;9.37;6.47;;;;;;;4.56;100.00;95659.59;5071360;28;20224;-71
2020/12/27 03:46:37;;;;;;;9.67;6.23;;;;;;;4.62;100.00;95653.47;5071520;28;20203;-71
2020/12/27 03:49:05;;;;;;;10.03;6.20;;;;;;;4.58;100.00;95661.94;5071558;28;20253;-70
2020/12/27 03:51:32;;;;;;;9.70;6.00;;;;;;;4.59;100.00;95660.88;5071520;28;20567;-71
2020/12/27 03:53:59;;;;;;;7.13;5.00;;;;;;;4.63;100.00;95660.13;5071190;28;20220;-71
2020/12/27 03:56:26;;;;;;;7.53;4.97;;;;;;;4.68;100.00;95665.31;5071225;28;20200;-71
2020/12/27 03:58:52;;;;;;;5.53;3.97;;;;;;;4.65;100.00;95658.09;5071083;28;20274;-71
2020/12/27 04:01:19;;;;;;;7.03;4.20;;;;;;;4.68;100.00;95654.25;5071164;28;20652;-71
2020/12/27 04:03:46;;;;;;;7.13;4.90;;;;;;;4.69;100.00;95651.41;5071285;28;20192;-70
2020/12/27 04:06:16;;;;;;;6.83;4.17;;;;;;;4.74;100.00;95645.50;5070092;28;20205;-69
2020/12/27 04:08:43;;;;;;;5.97;3.47;;;;;;;4.81;100.00;95648.63;5070834;28;20203;-71
2020/12/27 04:11:10;;;;;;;5.93;3.80;;;;;;;4.77;100.00;95650.19;5070893;28;20620;-72
2020/12/27 04:13:37;;;;;;;10.50;4.23;;;;;;;4.87;100.00;95642.47;5071078;28;20228;-71
2020/12/27 04:16:04;;;;;;;5.90;3.43;;;;;;;4.85;100.00;95644.53;5070865;28;20197;-71
2020/12/27 04:18:31;;;;;;;8.27;3.40;;;;;;;4.86;100.00;95633.22;5070843;28;20283;-72
2020/12/27 04:20:58;;;;;;;6.30;3.60;;;;;;;4.83;100.00;95627.81;5070661;28;20281;-70
2020/12/27 04:23:25;;;;;;;5.00;2.90;;;;;;;4.86;100.00;95622.13;5070716;28;20204;-67
2020/12/27 04:25:52;;;;;;;5.67;2.40;;;;;;;4.83;100.00;95631.16;5070618;28;20196;-72
2020/12/27 04:28:20;;;;;;;4.57;2.77;;;;;;;4.83;100.00;95633.72;5070520;28;20668;-71
2020/12/27 04:30:46;;;;;;;4.37;2.57;;;;;;;4.82;100.00;95639.91;5070762;28;20326;-71
2020/12/27 04:33:13;;;;;;;5.53;2.93;;;;;;;4.81;100.00;95630.63;5070657;28;20321;-71
2020/12/27 04:35:40;;;;;;;5.20;2.80;;;;;;;4.86;100.00;95633.22;5070504;28;20280;-72
2020/12/27 04:38:07;;;;;;;4.13;2.50;;;;;;;4.85;100.00;95641.16;5070277;28;20220;-71
2020/12/27 04:40:34;;;;;;;8.13;3.70;;;;;;;4.85;100.00;95636.03;5070530;28;20196;-71
2020/12/27 04:43:02;;;;;;;7.80;4.53;;;;;;;4.76;100.00;95631.38;5070220;28;20185;-68
2020/12/27 04:45:30;;;;;;;7.30;3.50;;;;;;;4.81;100.00;95635.75;5070629;28;20196;-71
2020/12/27 04:47:57;;;;;;;9.23;3.87;;;;;;;4.80;100.00;95631.63;5070285;28;20192;-69
2020/12/27 04:50:27;;;;;;;11.77;5.40;;;;;;;4.81;100.00;95635.75;5070358;28;20211;-68
2020/12/27 04:52:53;;;;;;;8.47;4.67;;;;;;;4.80;100.00;95634.22;5070182;28;20230;-70
2020/12/27 04:55:20;;;;;;;8.83;3.50;;;;;;;4.79;100.00;95645.53;5070438;28;20643;-71
2020/12/27 04:57:51;;;;;;;6.07;2.80;;;;;;;4.90;100.00;95644.53;5070354;28;20192;-70
2020/12/27 05:00:22;;;;;;;7.60;2.97;;;;;;;4.86;100.00;95642.72;5070316;28;20657;-70
2020/12/27 05:02:48;;;;;;;6.23;3.20;;;;;;;4.80;100.00;95639.34;5070099;28;20302;-70
2020/12/27 05:05:15;;;;;;;7.20;3.00;;;;;;;4.85;100.00;95644.53;5070137;28;20192;-70
2020/12/27 05:07:43;;;;;;;4.47;2.77;;;;;;;4.87;100.00;95642.47;5070119;28;20283;-71
2020/12/27 05:10:10;;;;;;;4.03;2.87;;;;;;;4.90;100.00;95643.75;5070358;28;20196;-71
2020/12/27 05:12:37;;;;;;;6.33;3.63;;;;;;;4.89;100.00;95642.22;5069830;28;20216;-70
2020/12/27 05:15:07;;;;;;;10.53;5.13;;;;;;;4.69;100.00;95650.63;5069997;28;20659;-70
2020/12/27 05:17:34;;;;;;;9.47;4.67;;;;;;;4.75;100.00;95642.69;5069811;28;20196;-71
2020/12/27 05:20:09;;;;;;;10.00;4.80;;;;;;;4.87;99.75;95647.63;5069864;28;20188;-69
2020/12/27 05:22:37;;;;;;;10.20;5.03;;;;;;;4.81;100.00;95643.50;5069792;28;20552;-70
2020/12/27 05:25:05;;;;;;;11.17;4.73;;;;;;;4.71;100.00;95648.59;5069867;28;20185;-70
2020/12/27 05:27:40;;;;;;;12.93;6.77;;;;;;;4.83;100.00;95644.03;5069753;28;20242;-70
2020/12/27 05:30:08;;;;;;;11.97;5.20;;;;;;;4.82;100.00;95657.13;5069909;28;20195;-70
2020/12/27 05:32:35;;;;;;;12.03;4.87;;;;;;;4.84;100.00;95653.28;5070271;28;20240;-69
2020/12/27 05:35:01;;;;;;;9.40;4.87;;;;;;;4.83;100.00;95653.53;5069734;28;20200;-70
2020/12/27 05:37:30;;;;;;;6.70;4.33;;;;;;;4.84;100.00;95649.91;5069818;28;20209;-70
2020/12/27 05:39:57;;;;;;;6.97;3.77;;;;;;;4.75;100.00;95652.22;5069993;28;20206;-70
2020/12/27 05:42:25;;;;;;;5.80;3.50;;;;;;;4.75;100.00;95650.41;5069693;28;20564;-68
2020/12/27 05:44:52;;;;;;;5.80;3.43;;;;;;;4.73;100.00;95649.88;5069569;28;20582;-68
2020/12/27 05:47:20;;;;;;;10.17;4.83;;;;;;;4.80;100.00;95649.66;5069742;28;20197;-71
2020/12/27 05:49:47;;;;;;;7.97;4.87;;;;;;;4.84;100.00;95648.13;5069971;28;20192;-70
2020/12/27 05:52:15;;;;;;;6.27;4.13;;;;;;;4.90;100.00;95644.53;5069659;28;20197;-69
2020/12/27 05:54:47;;;;;;;8.27;4.10;;;;;;;4.83;100.00;95644.03;5069516;28;20228;-70
2020/12/27 05:57:15;;;;;;;5.10;3.03;;;;;;;4.85;100.00;95636.81;5069687;28;20240;-70
2020/12/27 05:59:46;;;;;;;8.67;4.20;;;;;;;4.88;99.01;95636.28;5069410;28;20589;-70
2020/12/27 06:02:39;;;;;;;7.57;4.03;;;;;;;4.78;99.09;95634.47;5069777;28;20275;-69
2020/12/27 06:05:14;;;;;;;7.63;4.10;;;;;;;4.75;100.00;95622.09;5069768;28;20208;-70
2020/12/27 06:07:44;;;;;;;16.70;8.43;;;;;;;4.76;100.00;95625.44;5069468;28;20207;-70
2020/12/27 06:10:14;;;;;;;11.27;6.47;;;;;;;4.76;100.00;95618.50;5069410;28;20307;-70
2020/12/27 06:13:24;;;;;;;15.63;5.23;;;;;;;4.77;100.00;95619.28;5069561;28;20200;-68
2020/12/27 06:15:56;;;;;;;6.57;4.30;;;;;;;4.70;100.00;95623.88;5062583;28;20667;-70
2020/12/27 06:18:27;;;;;;;9.60;5.07;;;;;;;4.73;100.00;95629.28;5069758;28;20211;-71
2020/12/27 06:21:08;;;;;;;12.47;5.07;;;;;;;4.71;100.00;95626.22;5069558;28;20640;-72
2020/12/27 06:23:36;;;;;;;7.70;4.80;;;;;;;4.78;99.85;95631.13;5069509;28;20250;-71
2020/12/27 06:26:05;;;;;;;10.33;6.07;;;;;;;4.70;100.00;95631.59;5069284;28;20192;-72
2020/12/27 06:28:33;;;;;;;8.63;5.93;;;;;;;4.72;100.00;95632.13;5069352;28;20192;-71
2020/12/27 06:31:07;;;;;;;11.37;6.07;;;;;;;4.76;99.57;95643.47;5072477;28;20288;-71
2020/12/27 06:33:38;;;;;;;11.67;6.60;;;;;;;4.81;99.13;95635.00;5073075;28;20239;-69
2020/12/27 06:36:05;;;;;;;12.67;6.00;;;;;;;4.78;99.35;95626.72;5073197;28;20193;-71
2020/12/27 06:38:34;;;;;;;14.07;7.10;;;;;;;4.87;98.23;95632.19;5072809;28;20258;-71
2020/12/27 06:41:08;;;;;;;21.17;8.67;;;;;;;4.89;97.83;95627.53;5072769;28;20196;-71
2020/12/27 06:43:41;;;;;;;14.73;7.13;;;;;;;4.78;98.77;95631.13;5072556;28;20235;-70
2020/12/27 06:46:22;;;;;;;18.60;6.90;;;;;;;4.91;98.09;95640.16;5073128;28;20192;-71
2020/12/27 06:48:49;;;;;;;16.90;9.10;;;;;;;5.09;97.47;95644.84;5072554;28;20211;-71
2020/12/27 06:51:37;;;;;;;21.33;9.63;;;;;;;5.13;98.12;95633.78;5072363;28;20215;-71
2020/12/27 06:54:05;;;;;;;21.03;8.47;;;;;;;5.06;97.90;95633.25;5072937;28;20577;-71
2020/12/27 06:56:39;;;;;;;15.00;7.50;;;;;;;5.07;97.65;95619.34;5072860;28;20581;-70
2020/12/27 06:59:06;;;;;;;31.67;14.70;;;;;;;5.06;98.20;95615.22;5072265;28;20280;-71
2020/12/27 07:01:33;;;;;;;27.43;12.60;;;;;;;5.11;98.31;95619.63;5072398;28;20321;-71
2020/12/27 07:04:15;;;;;;;41.87;22.40;;;;;;;5.16;97.56;95628.13;5072631;28;20236;-70
2020/12/27 07:06:42;;;;;;;25.90;13.70;;;;;;;5.18;96.28;95638.94;5072406;28;20211;-71
2020/12/27 07:09:09;;;;;;;18.67;9.53;;;;;;;5.13;96.33;95627.88;5072228;28;20516;-71
2020/12/27 07:11:36;;;;;;;49.60;24.20;;;;;;;5.13;96.32;95623.47;5072348;28;20215;-71
2020/12/27 07:14:04;;;;;;;28.47;14.20;;;;;;;5.09;96.15;95619.84;5072008;28;20235;-70
2020/12/27 07:16:50;;;;;;;20.13;9.50;;;;;;;5.18;95.34;95635.59;5072233;28;20582;-70
2020/12/27 07:19:18;;;;;;;16.07;7.27;;;;;;;5.16;95.00;95638.44;5072132;28;20184;-71
2020/12/27 07:21:48;;;;;;;13.90;6.90;;;;;;;5.20;95.28;95633.53;5071854;28;20578;-70
2020/12/27 07:24:19;;;;;;;27.07;11.23;;;;;;;5.16;95.56;95628.13;5071997;28;20196;-71
2020/12/27 07:26:47;;;;;;;28.03;11.30;;;;;;;5.19;95.35;95617.31;5071994;28;20624;-70
2020/12/27 07:29:18;;;;;;;49.00;19.10;;;;;;;5.18;95.75;95628.63;5071809;28;20601;-71
2020/12/27 07:31:45;;;;;;;59.10;21.67;;;;;;;5.18;96.24;95623.47;5071960;28;20679;-71
2020/12/27 07:34:14;;;;;;;54.90;17.27;;;;;;;5.27;94.93;95623.00;5071680;28;20227;-72
2020/12/27 07:36:43;;;;;;;42.07;14.13;;;;;;;5.31;94.78;95629.94;5071576;28;20861;-72
2020/12/27 07:39:10;;;;;;;44.40;17.50;;;;;;;5.36;95.27;95611.13;5071754;28;20197;-68
2020/12/27 07:41:40;;;;;;;39.80;14.17;;;;;;;5.31;94.98;95622.22;5071677;28;20200;-71
2020/12/27 07:44:11;;;;;;;38.53;12.83;;;;;;;5.33;94.99;95621.97;5071327;28;20715;-72
2020/12/27 07:46:38;;;;;;;28.90;10.57;;;;;;;5.39;94.66;95615.78;5071648;28;20189;-71
2020/12/27 07:49:09;;;;;;;38.10;12.33;;;;;;;5.40;94.26;95619.91;5071482;28;20197;-72
2020/12/27 07:51:36;;;;;;;43.57;17.37;;;;;;;5.38;93.81;95616.81;5071478;28;20887;-71
2020/12/27 07:54:04;;;;;;;36.97;14.00;;;;;;;5.39;93.83;95610.63;5071449;28;20232;-71
2020/12/27 07:56:32;;;;;;;32.33;11.43;;;;;;;5.44;93.62;95610.63;5071553;28;20249;-71
2020/12/27 07:59:00;;;;;;;43.10;17.30;;;;;;;5.39;94.38;95608.03;5071432;28;20192;-70
2020/12/27 08:01:29;;;;;;;39.20;17.27;;;;;;;5.50;94.20;95609.59;5071160;28;20189;-72
2020/12/27 08:03:57;;;;;;;31.20;13.90;;;;;;;5.45;94.78;95612.16;5071332;28;20197;-72
2020/12/27 08:06:24;;;;;;;32.73;13.67;;;;;;;5.51;95.04;95617.06;5071277;28;20188;-71
2020/12/27 08:09:01;;;;;;;31.67;12.47;;;;;;;5.54;95.28;95624.28;5071039;28;20199;-69
2020/12/27 08:11:29;;;;;;;29.03;10.80;;;;;;;5.61;94.63;95618.88;5071185;28;20690;-69
2020/12/27 08:13:58;;;;;;;21.53;9.50;;;;;;;5.67;94.64;95627.38;5070985;28;20234;-71
2020/12/27 08:16:26;;;;;;;18.97;7.90;;;;;;;5.70;94.39;95617.31;5070835;28;20189;-70
2020/12/27 08:19:06;;;;;;;19.53;8.37;;;;;;;5.69;94.39;95604.69;5070814;28;20620;-71
2020/12/27 08:21:34;;;;;;;23.17;11.23;;;;;;;5.59;94.26;95611.41;5070731;28;20196;-69
2020/12/27 08:24:03;;;;;;;17.03;7.23;;;;;;;5.62;93.73;95605.75;5070938;28;20201;-70
2020/12/27 08:26:31;;;;;;;19.33;8.10;;;;;;;5.59;93.75;95605.47;5070732;28;20192;-69
2020/12/27 08:29:12;;;;;;;17.30;8.40;;;;;;;5.62;93.94;95597.22;5070804;28;20268;-68
2020/12/27 08:31:39;;;;;;;18.70;9.27;;;;;;;5.62;94.94;95589.50;5070550;28;20234;-70
2020/12/27 08:34:11;;;;;;;44.77;21.00;;;;;;;5.67;95.14;95586.16;5070355;28;20235;-70
2020/12/27 08:36:45;;;;;;;24.77;13.30;;;;;;;5.67;94.67;95581.00;5070650;28;20212;-70
2020/12/27 08:39:31;;;;;;;31.50;13.97;;;;;;;5.71;95.64;95572.47;5070438;28;20660;-69
2020/12/27 08:42:06;;;;;;;23.10;11.37;;;;;;;5.78;95.26;95567.81;5070888;28;20188;-68
2020/12/27 08:44:50;;;;;;;23.33;12.77;;;;;;;5.85;94.90;95575.28;5070498;28;20265;-67
2020/12/27 08:47:31;;;;;;;21.50;12.70;;;;;;;5.93;94.43;95574.78;5070311;28;20206;-70
2020/12/27 08:50:05;;;;;;;22.70;13.33;;;;;;;5.93;95.19;95567.81;5070410;28;20196;-70
2020/12/27 08:52:34;;;;;;;20.13;11.67;;;;;;;5.78;92.62;95562.66;5070041;28;20202;-70
2020/12/27 08:55:03;;;;;;;15.47;9.17;;;;;;;5.53;92.74;95560.09;5070161;28;20252;-71
2020/12/27 08:57:32;;;;;;;17.17;10.17;;;;;;;5.33;93.28;95567.88;5070361;28;20580;-71
2020/12/27 09:00:00;;;;;;;20.50;11.63;;;;;;;5.39;93.69;95570.16;5070104;28;20192;-70
2020/12/27 09:02:26;;;;;;;21.83;11.13;;;;;;;5.40;94.13;95570.94;5069998;28;20188;-71
2020/12/27 09:05:10;;;;;;;19.67;11.33;;;;;;;5.49;93.38;95565.00;5069949;28;20690;-72
2020/12/27 09:07:39;;;;;;;16.03;9.20;;;;;;;5.36;93.87;95572.50;5069732;28;20185;-69
2020/12/27 09:10:11;;;;;;;18.60;9.67;;;;;;;5.40;93.82;95576.09;5069896;28;20197;-71
2020/12/27 09:12:55;;;;;;;18.80;11.00;;;;;;;5.37;93.65;95568.91;5070110;28;20193;-71
2020/12/27 09:15:23;;;;;;;22.77;11.43;;;;;;;5.35;93.34;95576.09;5070334;28;20239;-71
2020/12/27 09:17:58;;;;;;;22.53;12.33;;;;;;;5.36;93.51;95577.66;5070011;28;20198;-70
2020/12/27 09:20:26;;;;;;;19.47;10.20;;;;;;;5.41;92.94;95580.22;5070130;28;20192;-70
2020/12/27 09:22:53;;;;;;;17.57;9.87;;;;;;;5.44;93.27;95582.28;5069933;28;20192;-71
2020/12/27 09:25:22;;;;;;;17.00;9.83;;;;;;;5.33;92.77;95568.63;5070031;28;20197;-71
2020/12/27 09:27:51;;;;;;;16.63;10.23;;;;;;;5.31;94.00;95564.75;5069915;28;20197;-70
2020/12/27 09:30:20;;;;;;;15.50;9.93;;;;;;;5.33;93.99;95555.72;5069729;28;20687;-69
2020/12/27 09:32:47;;;;;;;17.77;10.13;;;;;;;5.29;93.74;95554.72;5069769;28;20231;-71
2020/12/27 09:35:21;;;;;;;22.47;10.43;;;;;;;5.20;94.32;95541.56;5070148;28;20797;-71
2020/12/27 09:37:49;;;;;;;20.70;10.07;;;;;;;5.23;94.37;95537.69;5069610;28;20219;-69
2020/12/27 09:40:17;;;;;;;29.97;14.93;;;;;;;5.30;94.70;95514.25;5069707;28;20675;-71
2020/12/27 09:42:45;;;;;;;51.60;23.73;;;;;;;5.27;94.51;95518.16;5069736;28;20678;-70
2020/12/27 09:45:21;;;;;;;52.17;21.57;;;;;;;5.33;94.74;95511.19;5069617;28;20307;-70
2020/12/27 09:47:52;;;;;;;70.87;26.60;;;;;;;5.28;94.45;95508.63;5069672;28;20188;-69
2020/12/27 09:50:26;;;;;;;64.67;22.97;;;;;;;5.32;94.31;95494.94;5069869;28;20628;-69
2020/12/27 09:52:53;;;;;;;61.10;22.83;;;;;;;5.26;94.24;95495.22;5069592;28;20203;-70
2020/12/27 09:55:20;;;;;;;37.83;14.30;;;;;;;5.19;94.00;95492.88;5069595;28;20199;-70
2020/12/27 09:57:47;;;;;;;70.73;22.23;;;;;;;5.27;94.21;95489.03;5069463;28;20201;-69
2020/12/27 10:00:14;;;;;;;55.10;21.53;;;;;;;5.32;94.34;95492.38;5069745;28;20223;-70
2020/12/27 10:02:42;;;;;;;57.37;22.30;;;;;;;5.31;93.50;95490.06;5069535;28;20197;-70
2020/12/27 10:05:09;;;;;;;39.00;17.90;;;;;;;5.36;93.76;95487.47;5071748;28;20203;-65
2020/12/27 10:07:36;;;;;;;49.20;20.43;;;;;;;5.37;94.09;95494.19;5073507;28;20199;-70
2020/12/27 10:10:04;;;;;;;44.83;19.27;;;;;;;5.35;94.58;95486.69;5073595;28;20204;-70
2020/12/27 10:12:31;;;;;;;44.73;18.20;;;;;;;5.38;93.58;95482.84;5073276;28;20696;-71
2020/12/27 10:14:58;;;;;;;65.93;22.20;;;;;;;5.39;92.91;95471.47;5073218;28;20224;-70
2020/12/27 10:17:25;;;;;;;69.57;23.70;;;;;;;5.25;93.61;95468.69;5073718;28;20271;-71
2020/12/27 10:19:53;;;;;;;50.03;18.77;;;;;;;5.36;93.17;95477.16;5073268;28;20207;-70
2020/12/27 10:22:20;;;;;;;73.10;24.17;;;;;;;5.29;93.77;95471.50;5072990;28;20256;-71
2020/12/27 10:24:46;;;;;;;46.97;19.17;;;;;;;5.32;93.61;95468.41;5073053;28;20575;-70
2020/12/27 10:27:13;;;;;;;72.00;25.30;;;;;;;5.35;94.40;95465.31;5072773;28;20204;-69
2020/12/27 10:29:43;;;;;;;63.20;23.43;;;;;;;5.48;93.86;95465.53;5073050;28;20220;-66
2020/12/27 10:32:10;;;;;;;71.80;26.10;;;;;;;5.62;93.98;95460.63;5072856;28;20188;-69
2020/12/27 10:34:38;;;;;;;81.30;32.07;;;;;;;5.61;94.51;95465.00;5072866;28;20235;-69
2020/12/27 10:37:06;;;;;;;85.87;31.40;;;;;;;5.61;94.53;95443.59;5072506;28;20219;-66
2020/12/27 10:39:33;;;;;;;57.73;22.37;;;;;;;5.44;94.64;95437.97;5072744;28;20203;-70
2020/12/27 10:42:01;;;;;;;49.20;19.53;;;;;;;5.43;95.70;95423.56;5072575;28;20307;-70
2020/12/27 10:44:28;;;;;;;45.73;17.37;;;;;;;5.42;95.28;95411.72;5072443;28;20673;-70
2020/12/27 10:46:55;;;;;;;54.10;19.57;;;;;;;5.43;95.97;95397.81;5072447;28;20192;-69
2020/12/27 10:49:24;;;;;;;76.53;27.83;;;;;;;5.40;96.12;95390.56;5072473;28;20196;-69
2020/12/27 10:51:51;;;;;;;42.03;18.43;;;;;;;5.39;96.53;95394.19;5072708;28;20203;-66
2020/12/27 10:54:19;;;;;;;95.10;31.07;;;;;;;5.51;96.53;95397.25;5072745;28;20317;-70
2020/12/27 10:56:46;;;;;;;113.00;38.53;;;;;;;5.41;96.78;95392.91;5072545;28;20204;-70
2020/12/27 10:59:14;;;;;;;134.47;43.07;;;;;;;5.47;97.33;95381.56;5072196;28;20292;-70
2020/12/27 11:01:45;;;;;;;66.60;24.80;;;;;;;5.54;97.64;95391.56;5072435;28;20295;-69
2020/12/27 11:04:13;;;;;;;57.47;27.07;;;;;;;5.62;97.17;95378.91;5072465;28;20279;-69
2020/12/27 11:06:40;;;;;;;86.43;34.57;;;;;;;5.65;97.67;95367.28;5072152;28;20262;-70
2020/12/27 11:09:07;;;;;;;45.97;20.70;;;;;;;5.71;97.56;95363.66;5072228;28;20192;-71
2020/12/27 11:11:36;;;;;;;31.10;15.53;;;;;;;5.85;97.55;95367.19;5072234;28;20200;-69
2020/12/27 11:14:03;;;;;;;27.07;14.93;;;;;;;5.91;96.63;95363.59;5072114;28;20713;-70
2020/12/27 11:16:31;;;;;;;34.00;16.77;;;;;;;5.90;96.13;95359.47;5071725;28;20193;-69
2020/12/27 11:18:59;;;;;;;31.73;17.50;;;;;;;5.91;96.17;95348.13;5072418;28;20558;-70
2020/12/27 11:21:26;;;;;;;35.47;16.27;;;;;;;5.81;96.44;95349.94;5072380;28;20192;-70
2020/12/27 11:23:53;;;;;;;39.77;17.93;;;;;;;5.83;96.80;95328.00;5072225;28;20207;-70
2020/12/27 11:26:20;;;;;;;31.93;15.57;;;;;;;5.83;96.35;95325.44;5072099;28;20579;-69
2020/12/27 11:28:49;;;;;;;45.23;20.60;;;;;;;5.84;96.80;95316.66;5072175;28;20200;-69
2020/12/27 11:31:16;;;;;;;47.93;22.73;;;;;;;5.90;97.07;95317.44;5072092;28;20281;-68
2020/12/27 11:33:44;;;;;;;33.03;18.17;;;;;;;6.04;98.14;95313.97;5071826;28;20696;-70
2020/12/27 11:36:11;;;;;;;30.87;17.13;;;;;;;6.27;99.16;95289.31;5071823;28;20197;-71